Time;durP1;ratioP1;P1;durP2;ratioP2;P2;SDS_P1;SDS_P2;PMS_P1;PMS_P2;Temp;Humidity;BMP_temperature;BMP_pressure;BME280_temperature;BME280_humidity;BME280_pressure;Samples;Min_cycle;Max_cycle;Signal;HPM_P1;HPM_P2
2022/05/19 00:01:57;;;;;;;26.55;21.80;;;;;;;20.95;67.49;101499.53;3560438;40;20045;-64
2022/05/19 00:04:23;;;;;;;25.75;20.33;;;;;;;20.93;67.73;101492.47;3561688;40;20109;-64
2022/05/19 00:06:49;;;;;;;26.67;20.63;;;;;;;20.89;67.16;101488.31;3560779;40;20069;-64
2022/05/19 00:09:15;;;;;;;28.27;21.73;;;;;;;20.88;67.34;101490.19;3561385;40;20059;-65
2022/05/19 00:11:43;;;;;;;26.88;21.17;;;;;;;20.68;67.52;101456.56;3562034;40;20065;-67
2022/05/19 00:14:09;;;;;;;29.50;21.17;;;;;;;20.86;68.22;101481.28;3560507;40;20404;-64
2022/05/19 00:16:35;;;;;;;26.38;21.10;;;;;;;20.77;68.33;101457.56;3560713;40;20068;-64
2022/05/19 00:19:01;;;;;;;28.50;21.02;;;;;;;20.67;67.50;101449.38;3561733;40;20066;-62
2022/05/19 00:21:26;;;;;;;27.52;20.70;;;;;;;20.71;67.63;101460.88;3561842;40;20071;-63
2022/05/19 00:23:52;;;;;;;26.83;20.25;;;;;;;20.71;68.62;101455.41;3560257;40;20300;-63
2022/05/19 00:26:18;;;;;;;25.08;21.02;;;;;;;20.62;68.73;101458.00;3561329;40;20403;-63
2022/05/19 00:28:43;;;;;;;25.45;21.10;;;;;;;20.60;68.34;101454.56;3561192;40;20092;-62
2022/05/19 00:31:09;;;;;;;26.35;22.58;;;;;;;20.68;68.31;101463.88;3561062;40;20076;-63
2022/05/19 00:33:35;;;;;;;28.23;21.65;;;;;;;20.63;68.84;101464.34;3560260;40;20304;-63
2022/05/19 00:36:16;;;;;;;26.35;22.35;;;;;;;20.58;68.65;101459.31;3561073;40;20052;-63
2022/05/19 00:38:43;;;;;;;27.88;21.75;;;;;;;20.60;69.00;101456.44;3559412;40;20061;-63
2022/05/19 00:41:11;;;;;;;27.95;21.38;;;;;;;20.56;68.81;101453.13;3560262;40;20423;-62
2022/05/19 00:43:41;;;;;;;28.38;21.92;;;;;;;20.55;68.72;101456.88;3561067;40;20057;-62
2022/05/19 00:46:18;;;;;;;29.40;22.35;;;;;;;20.51;68.60;101449.06;3558854;40;20049;-62
2022/05/19 00:48:56;;;;;;;26.05;20.65;;;;;;;20.51;68.80;101455.41;3560908;40;20299;-62
2022/05/19 00:51:42;;;;;;;29.58;22.77;;;;;;;20.29;68.93;101417.44;3560216;40;20069;-63
2022/05/19 00:54:15;;;;;;;25.17;21.38;;;;;;;20.42;68.99;101437.13;3559255;40;20065;-63
2022/05/19 00:56:59;;;;;;;26.05;21.42;;;;;;;20.33;69.85;101427.06;3561409;40;20046;-62
2022/05/19 00:59:36;;;;;;;29.98;23.60;;;;;;;20.38;69.59;101443.88;3561394;40;20124;-63
2022/05/19 01:02:06;;;;;;;27.65;22.60;;;;;;;20.30;69.50;101425.50;3560285;40;20057;-62
2022/05/19 01:04:43;;;;;;;30.17;22.92;;;;;;;20.31;70.37;101426.38;3560304;40;20057;-61
2022/05/19 01:07:18;;;;;;;28.75;23.08;;;;;;;20.28;70.29;101423.91;3561694;40;20355;-63
2022/05/19 01:09:46;;;;;;;29.35;23.67;;;;;;;20.25;70.66;101424.22;3562579;40;21468;-63
2022/05/19 01:12:12;;;;;;;31.10;23.17;;;;;;;20.23;70.07;101423.47;3560212;40;20483;-63
2022/05/19 01:14:37;;;;;;;30.90;23.27;;;;;;;20.18;70.34;101416.59;3561182;40;20404;-63
2022/05/19 01:17:06;;;;;;;28.75;23.30;;;;;;;20.04;70.82;101392.44;3562247;40;20069;-62
2022/05/19 01:19:42;;;;;;;33.90;24.20;;;;;;;20.09;70.71;101402.94;3562830;40;20052;-62
2022/05/19 01:22:27;;;;;;;33.83;25.15;;;;;;;20.10;70.77;101408.22;3564049;40;20049;-63
2022/05/19 01:25:08;;;;;;;28.52;24.67;;;;;;;20.06;70.94;101409.53;3563199;40;20055;-62
2022/05/19 01:27:36;;;;;;;33.00;24.35;;;;;;;20.03;70.90;101406.22;3563085;40;20131;-61
2022/05/19 01:30:09;;;;;;;31.27;24.67;;;;;;;20.00;72.04;101395.59;3565596;40;20077;-62
2022/05/19 01:32:35;;;;;;;32.78;25.88;;;;;;;19.99;71.18;101396.59;3562575;40;20069;-63
2022/05/19 01:35:02;;;;;;;33.92;25.45;;;;;;;20.00;71.37;101391.00;3564162;40;20052;-63
2022/05/19 01:37:28;;;;;;;29.35;25.55;;;;;;;19.98;71.68;101382.09;3562042;40;20478;-63
2022/05/19 01:40:06;;;;;;;31.33;25.52;;;;;;;19.97;72.01;101380.38;3560738;40;20069;-62
2022/05/19 01:43:04;;;;;;;34.50;26.38;;;;;;;19.96;71.83;101386.84;3563074;40;20111;-63
2022/05/19 01:45:48;;;;;;;32.15;25.58;;;;;;;19.95;71.78;101387.84;3561630;40;20058;-63
2022/05/19 01:48:57;;;;;;;30.02;25.77;;;;;;;19.93;72.03;101384.38;3558243;40;20060;-63
2022/05/19 01:51:51;;;;;;;32.45;25.58;;;;;;;19.89;71.76;101374.78;3562492;40;20164;-62
2022/05/19 01:54:28;;;;;;;;;;;;;;;19.90;72.05;101379.22;3562659;40;20343;-62
2022/05/19 01:57:17;;;;;;;32.17;25.00;;;;;;;19.92;71.97;101371.75;3561244;40;19944;-63
2022/05/19 02:00:07;;;;;;;30.70;25.75;;;;;;;19.92;72.00;101378.06;3561767;40;20049;-63
2022/05/19 02:03:00;;;;;;;28.52;25.42;;;;;;;19.91;71.94;101368.13;3563075;40;20085;-62
2022/05/19 02:05:45;;;;;;;31.98;26.13;;;;;;;19.88;72.01;101364.84;3561974;40;20438;-63
2022/05/19 02:08:27;;;;;;;32.45;25.85;;;;;;;19.89;72.19;101364.72;3563684;40;20051;-63
2022/05/19 02:10:59;;;;;;;28.63;25.50;;;;;;;19.92;72.45;101360.84;3562247;40;20067;-63
2022/05/19 02:13:30;;;;;;;28.05;24.85;;;;;;;19.75;72.07;101336.97;3561985;40;20092;-62
2022/05/19 02:16:03;;;;;;;28.45;25.40;;;;;;;19.92;72.41;101360.84;3562005;40;20069;-62
2022/05/19 02:18:29;;;;;;;30.48;23.83;;;;;;;19.96;72.86;101367.72;3562471;40;20161;-63
2022/05/19 02:21:00;;;;;;;31.40;23.95;;;;;;;20.02;72.11;101382.69;3561636;40;20380;-62
2022/05/19 02:23:26;;;;;;;26.95;22.95;;;;;;;20.02;72.36;101364.44;3561566;40;20088;-63
2022/05/19 02:25:53;;;;;;;26.90;22.50;;;;;;;20.07;72.08;101364.00;3562986;40;20061;-61
2022/05/19 02:28:45;;;;;;;25.80;22.92;;;;;;;20.09;71.56;101376.50;3562054;40;21275;-64
2022/05/19 02:31:12;;;;;;;26.67;22.48;;;;;;;20.12;71.51;101375.34;3561080;40;20105;-63
2022/05/19 02:33:38;;;;;;;30.38;24.45;;;;;;;20.01;71.61;101354.50;3561412;40;20470;-62
2022/05/19 02:36:05;;;;;;;24.48;21.80;;;;;;;20.12;71.14;101368.03;3560180;40;20053;-62
2022/05/19 02:38:31;;;;;;;27.85;22.65;;;;;;;20.20;71.69;101380.06;3560642;40;20167;-63
2022/05/19 02:40:57;;;;;;;26.50;20.50;;;;;;;20.20;71.12;101372.75;3559716;40;20099;-63
2022/05/19 02:43:22;;;;;;;26.10;22.17;;;;;;;20.26;70.68;101379.50;3562752;40;20312;-63
2022/05/19 02:45:48;;;;;;;28.75;21.20;;;;;;;20.24;70.94;101371.47;3561845;40;20073;-63
2022/05/19 02:48:17;;;;;;;24.08;21.10;;;;;;;20.18;70.72;101361.13;3560579;40;20616;-63
2022/05/19 02:50:45;;;;;;;24.25;20.58;;;;;;;20.32;71.01;101385.25;3559307;40;20069;-63
2022/05/19 02:53:11;;;;;;;22.90;19.65;;;;;;;20.32;70.80;101384.38;3560662;40;20616;-63
2022/05/19 02:55:38;;;;;;;21.27;19.00;;;;;;;20.31;70.43;101371.75;3559118;40;20062;-63
2022/05/19 02:58:04;;;;;;;21.38;16.65;;;;;;;20.32;69.96;101379.78;3560857;40;20423;-62
2022/05/19 03:00:30;;;;;;;21.55;16.65;;;;;;;20.43;69.11;101394.31;3562063;40;20122;-63
2022/05/19 03:02:57;;;;;;;17.98;15.80;;;;;;;20.47;69.08;101401.22;3561727;40;20056;-63
2022/05/19 03:05:29;;;;;;;19.13;14.70;;;;;;;20.46;67.91;101463.16;3562162;40;20075;-63
2022/05/19 03:07:55;;;;;;;18.73;15.55;;;;;;;20.62;68.23;101518.13;3562088;40;20071;-62
2022/05/19 03:10:23;;;;;;;21.80;19.48;;;;;;;20.54;68.48;101509.75;3561538;40;20057;-63
2022/05/19 03:12:49;;;;;;;23.02;18.92;;;;;;;20.47;67.77;101464.03;3561371;40;20143;-63
2022/05/19 03:15:15;;;;;;;17.95;15.93;;;;;;;20.76;66.10;101533.22;3560270;40;20105;-63
2022/05/19 03:17:41;;;;;;;18.02;15.27;;;;;;;20.87;64.93;101554.06;3561793;40;20053;-62
2022/05/19 03:20:09;;;;;;;18.77;14.95;;;;;;;20.97;64.36;101544.00;3560370;40;20065;-63
2022/05/19 03:22:35;;;;;;;17.48;15.10;;;;;;;21.10;64.33;101539.09;3559183;40;20079;-62
2022/05/19 03:25:02;;;;;;;18.08;15.43;;;;;;;21.20;64.20;101554.63;3560214;40;20061;-62
2022/05/19 03:27:27;;;;;;;19.58;14.65;;;;;;;21.18;64.32;101538.34;3561247;40;20152;-62
2022/05/19 03:29:53;;;;;;;17.88;14.68;;;;;;;21.25;64.32;101544.06;3558670;40;20049;-63
2022/05/19 03:32:19;;;;;;;16.73;15.02;;;;;;;21.08;64.40;101511.00;3559235;40;20061;-62
2022/05/19 03:34:45;;;;;;;18.05;15.95;;;;;;;21.25;64.33;101531.28;3559210;40;20053;-62
2022/05/19 03:37:12;;;;;;;18.00;15.30;;;;;;;21.30;64.10;101533.56;3561599;40;20052;-62
2022/05/19 03:39:40;;;;;;;21.63;16.23;;;;;;;21.10;64.10;101517.22;3560213;40;20069;-63
2022/05/19 03:42:07;;;;;;;18.85;15.68;;;;;;;21.23;64.43;101535.19;3557507;40;20556;-63
2022/05/19 03:44:35;;;;;;;23.75;15.57;;;;;;;21.27;64.38;101553.00;3560115;40;20739;-62
2022/05/19 03:47:01;;;;;;;19.48;16.20;;;;;;;21.20;64.55;101544.53;3561105;40;20119;-63
2022/05/19 03:49:26;;;;;;;20.15;15.63;;;;;;;21.19;64.60;101511.88;3560289;40;20427;-63
2022/05/19 03:51:52;;;;;;;17.65;14.93;;;;;;;21.19;65.26;101531.03;3559733;40;20122;-63
2022/05/19 03:54:18;;;;;;;18.27;15.48;;;;;;;21.19;65.13;101531.88;3560078;40;20068;-63
2022/05/19 03:56:44;;;;;;;20.20;16.20;;;;;;;21.17;66.25;101533.03;3559957;40;20061;-62
2022/05/19 03:59:10;;;;;;;18.23;15.25;;;;;;;21.06;65.87;101550.47;3560638;40;20113;-63
2022/05/19 04:01:36;;;;;;;17.55;15.40;;;;;;;21.02;66.27;101547.13;3561914;40;20061;-63
2022/05/19 04:04:02;;;;;;;18.42;14.32;;;;;;;21.10;66.40;101566.44;3561333;40;20081;-63
2022/05/19 04:06:29;;;;;;;18.88;14.43;;;;;;;21.09;66.37;101559.25;3559285;40;20056;-62
2022/05/19 04:08:55;;;;;;;18.90;15.40;;;;;;;21.12;65.46;101557.19;3560048;40;20049;-63
2022/05/19 04:11:21;;;;;;;17.70;15.77;;;;;;;21.16;65.69;101561.41;3559200;40;20069;-63
2022/05/19 04:13:47;;;;;;;21.98;16.13;;;;;;;21.00;65.79;101527.31;3557706;40;20053;-63
2022/05/19 04:16:12;;;;;;;19.65;16.05;;;;;;;21.13;65.97;101553.47;3557094;40;20189;-62
2022/05/19 04:18:38;;;;;;;18.40;15.55;;;;;;;21.08;66.00;101556.63;3560922;40;20053;-63
2022/05/19 04:21:05;;;;;;;19.52;16.35;;;;;;;21.10;66.50;101554.63;3562146;40;20056;-63
2022/05/19 04:23:32;;;;;;;20.13;16.25;;;;;;;21.14;66.47;101560.66;3558608;40;20049;-63
2022/05/19 04:25:58;;;;;;;19.42;15.93;;;;;;;21.17;65.74;101560.38;3561529;40;20057;-63
2022/05/19 04:28:23;;;;;;;20.63;15.40;;;;;;;21.19;66.03;101569.31;3560047;40;20570;-63
2022/05/19 04:30:49;;;;;;;19.13;16.73;;;;;;;21.19;65.85;101547.44;3558643;40;20060;-63
2022/05/19 04:33:15;;;;;;;19.70;17.10;;;;;;;21.17;66.25;101538.50;3561835;40;20091;-62
2022/05/19 04:35:40;;;;;;;20.65;16.58;;;;;;;21.19;66.56;101561.09;3559940;40;20431;-63
2022/05/19 04:38:11;;;;;;;22.35;16.67;;;;;;;21.22;66.39;101538.94;3560369;40;20160;-63
2022/05/19 04:40:43;;;;;;;19.05;16.42;;;;;;;21.19;66.98;101551.03;3558312;40;20069;-63
2022/05/19 04:43:10;;;;;;;20.33;15.80;;;;;;;21.16;66.37;101547.72;3562966;40;20123;-63
2022/05/19 04:45:36;;;;;;;20.15;15.82;;;;;;;21.14;66.54;101555.19;3564187;40;20108;-63
2022/05/19 04:48:02;;;;;;;19.58;16.50;;;;;;;21.18;66.13;101556.63;3560311;40;20299;-63
2022/05/19 04:50:29;;;;;;;25.73;16.88;;;;;;;20.99;66.92;101520.09;3550675;40;20045;-63
2022/05/19 04:52:59;;;;;;;20.00;15.95;;;;;;;21.20;66.26;101539.06;3562532;40;20084;-63
2022/05/19 04:55:26;;;;;;;22.73;15.60;;;;;;;21.12;66.62;101521.66;3563050;40;20049;-63
2022/05/19 04:57:52;;;;;;;21.20;16.30;;;;;;;20.92;66.41;101502.56;3559922;40;20616;-63
2022/05/19 05:00:19;;;;;;;24.48;15.98;;;;;;;21.15;67.72;101552.31;3562079;40;20057;-62
2022/05/19 05:02:45;;;;;;;21.88;14.80;;;;;;;21.10;66.78;101541.81;3558924;40;20119;-63
2022/05/19 05:05:11;;;;;;;24.45;15.02;;;;;;;21.11;67.41;101545.41;3559743;40;20069;-63
2022/05/19 05:07:37;;;;;;;21.67;14.70;;;;;;;21.21;66.73;101545.41;3561602;40;20115;-63
2022/05/19 05:10:04;;;;;;;17.52;14.20;;;;;;;21.14;66.31;101530.59;3561074;40;20050;-62
2022/05/19 05:12:30;;;;;;;16.58;12.95;;;;;;;21.25;66.62;101525.81;3561380;40;20049;-63
2022/05/19 05:14:55;;;;;;;18.92;12.95;;;;;;;21.18;66.94;101526.53;3559994;40;20386;-63
2022/05/19 05:17:24;;;;;;;21.52;12.75;;;;;;;21.17;66.45;101511.16;3561680;40;20064;-63
2022/05/19 05:19:49;;;;;;;16.98;12.52;;;;;;;21.17;67.83;101513.88;3560632;40;20295;-63
2022/05/19 05:22:15;;;;;;;22.38;13.13;;;;;;;21.06;68.86;101510.31;3562545;40;20059;-62
2022/05/19 05:24:41;;;;;;;15.13;11.75;;;;;;;20.92;69.98;101491.63;3562552;40;20059;-62
2022/05/19 05:27:07;;;;;;;14.80;12.27;;;;;;;20.70;71.83;101472.81;3622970;22;20614;-59
2022/05/19 05:29:35;;;;;;;18.90;13.63;;;;;;;20.75;72.10;101489.66;3589015;39;20093;-59
2022/05/19 05:32:01;;;;;;;17.48;13.55;;;;;;;20.45;74.59;101449.63;3588891;39;20059;-59
2022/05/19 05:34:27;;;;;;;17.95;13.75;;;;;;;20.55;74.88;101473.25;3589920;39;20145;-59
2022/05/19 05:36:53;;;;;;;16.67;13.55;;;;;;;20.46;74.58;101479.56;3590786;39;20045;-59
2022/05/19 05:39:19;;;;;;;16.88;13.27;;;;;;;20.35;75.28;101466.88;3591869;39;20069;-60
2022/05/19 05:41:45;;;;;;;16.83;15.13;;;;;;;20.27;76.21;101441.31;3592662;39;20048;-60
2022/05/19 05:44:11;;;;;;;19.77;15.10;;;;;;;20.16;77.31;101440.41;3590532;39;21785;-59
2022/05/19 05:46:37;;;;;;;17.98;15.05;;;;;;;20.04;77.87;101421.59;3589681;39;20078;-59
2022/05/19 05:49:05;;;;;;;18.95;15.32;;;;;;;20.05;77.79;101418.72;3588949;39;20074;-59
2022/05/19 05:51:30;;;;;;;14.65;13.15;;;;;;;20.06;77.42;101434.09;3592031;39;20054;-60
2022/05/19 05:53:56;;;;;;;14.82;13.23;;;;;;;20.04;76.21;101452.47;3589637;39;20060;-59
2022/05/19 05:56:23;;;;;;;14.23;11.98;;;;;;;20.01;77.26;101433.66;3593634;39;20064;-60
2022/05/19 05:58:50;;;;;;;15.27;12.32;;;;;;;20.07;76.36;101449.47;3589747;39;20126;-60
2022/05/19 06:01:18;;;;;;;14.65;12.70;;;;;;;20.07;77.62;101435.81;3589289;39;20080;-59
2022/05/19 06:03:47;;;;;;;16.08;12.50;;;;;;;20.10;77.42;101415.56;3588107;39;20048;-59
2022/05/19 06:06:13;;;;;;;18.77;13.70;;;;;;;20.12;77.48;101419.03;3591798;39;20070;-60
2022/05/19 06:08:39;;;;;;;15.52;13.73;;;;;;;20.14;77.25;101447.06;3590021;39;20056;-60
2022/05/19 06:11:06;;;;;;;18.48;15.38;;;;;;;20.16;77.03;101462.25;3590667;39;20569;-60
2022/05/19 06:13:32;;;;;;;18.95;15.38;;;;;;;20.01;77.20;101428.19;3587869;39;20448;-60
2022/05/19 06:15:58;;;;;;;17.30;15.55;;;;;;;20.20;78.13;101456.53;3591504;39;20040;-60
2022/05/19 06:18:25;;;;;;;19.02;16.70;;;;;;;20.24;77.51;101458.84;3591447;39;20283;-60
2022/05/19 06:20:52;;;;;;;19.70;16.25;;;;;;;20.27;77.74;101453.09;3592443;39;20087;-60
2022/05/19 06:23:19;;;;;;;20.45;16.80;;;;;;;20.36;78.33;101448.63;3590151;39;20061;-59
2022/05/19 06:25:46;;;;;;;19.75;17.60;;;;;;;20.40;78.20;101440.03;3591646;39;20366;-60
2022/05/19 06:28:12;;;;;;;22.45;18.02;;;;;;;20.33;77.65;101414.31;3590681;39;20059;-60
2022/05/19 06:30:39;;;;;;;20.75;16.17;;;;;;;20.43;76.34;101441.59;3590563;39;20125;-61
2022/05/19 06:33:05;;;;;;;21.48;18.25;;;;;;;20.48;76.68;101438.44;3591264;39;20051;-62
2022/05/19 06:35:33;;;;;;;29.80;18.25;;;;;;;20.44;76.30;101420.63;3591359;39;20317;-62
2022/05/19 06:37:59;;;;;;;22.58;17.83;;;;;;;20.58;75.81;101440.19;3588992;39;20139;-62
2022/05/19 06:40:28;;;;;;;19.10;17.05;;;;;;;20.58;75.21;101434.72;3591717;39;20059;-62
2022/05/19 06:42:55;;;;;;;17.98;15.50;;;;;;;20.63;73.98;101432.41;3592078;39;20340;-63
2022/05/19 06:45:25;;;;;;;19.58;16.88;;;;;;;20.56;74.09;101419.50;3592207;39;20074;-61
2022/05/19 06:47:52;;;;;;;21.17;17.33;;;;;;;20.69;75.13;101411.00;3593432;39;20382;-61
2022/05/19 06:50:21;;;;;;;20.60;16.70;;;;;;;20.68;74.17;101415.59;3589985;39;20109;-61
2022/05/19 06:52:55;;;;;;;20.15;16.75;;;;;;;20.71;75.53;101428.97;3592605;39;20067;-61
2022/05/19 06:55:22;;;;;;;20.73;16.35;;;;;;;20.76;75.53;101426.63;3588228;39;20087;-61
2022/05/19 06:57:48;;;;;;;19.17;16.35;;;;;;;20.80;74.46;101424.47;3587571;39;20055;-61
2022/05/19 07:00:20;;;;;;;20.90;16.33;;;;;;;20.87;75.01;101439.28;3590086;39;20148;-61
2022/05/19 07:02:54;;;;;;;19.75;16.70;;;;;;;20.91;74.72;101432.50;3589379;39;20052;-61
2022/05/19 07:05:26;;;;;;;18.65;16.52;;;;;;;20.97;74.28;101433.81;3591125;39;20062;-61
2022/05/19 07:07:52;;;;;;;18.38;16.45;;;;;;;21.03;74.30;101417.66;3590720;39;20051;-61
2022/05/19 07:10:22;;;;;;;17.33;14.80;;;;;;;21.10;73.64;101426.13;3587532;39;20056;-61
2022/05/19 07:12:49;;;;;;;22.55;15.77;;;;;;;21.16;73.47;101416.47;3586118;39;20059;-62
2022/05/19 07:15:19;;;;;;;19.40;15.60;;;;;;;21.21;73.21;101414.13;3590704;39;20048;-63
2022/05/19 07:17:45;;;;;;;16.20;14.35;;;;;;;21.24;73.17;101413.84;3592067;39;20430;-62
2022/05/19 07:22:55;;;;;;;19.27;14.65;;;;;;;21.36;72.63;101412.69;3592177;39;20120;-62
2022/05/19 07:25:21;;;;;;;16.90;14.93;;;;;;;21.48;72.08;101406.00;3590028;39;21316;-62
2022/05/19 07:27:48;;;;;;;17.85;14.15;;;;;;;21.51;70.77;101402.97;3590927;39;20360;-62
2022/05/19 07:30:14;;;;;;;18.50;15.02;;;;;;;21.57;70.31;101404.22;3589719;39;20052;-62
2022/05/19 07:32:41;;;;;;;18.85;14.70;;;;;;;21.64;71.28;101409.94;3589688;39;20082;-63
2022/05/19 07:35:11;;;;;;;17.67;15.07;;;;;;;21.73;69.92;101414.50;3589061;39;20132;-62
2022/05/19 07:37:37;;;;;;;16.20;14.50;;;;;;;21.76;70.10;101397.78;3590034;39;20063;-63
2022/05/19 07:40:05;;;;;;;16.20;14.30;;;;;;;21.98;69.54;101435.66;3591405;39;20051;-63
2022/05/19 07:42:30;;;;;;;15.02;13.45;;;;;;;22.16;69.85;101432.09;3589952;39;20071;-62
2022/05/19 07:44:56;;;;;;;15.43;13.43;;;;;;;22.36;68.24;101432.81;3588342;39;20052;-62
2022/05/19 07:47:22;;;;;;;15.70;13.60;;;;;;;22.52;66.45;101443.06;3589641;39;20117;-62
2022/05/19 07:49:48;;;;;;;14.90;13.23;;;;;;;22.66;67.13;101429.66;3588985;39;21259;-63
2022/05/19 07:52:14;;;;;;;15.13;13.52;;;;;;;22.82;66.22;101417.94;3589324;39;20299;-63
2022/05/19 07:54:40;;;;;;;18.33;13.07;;;;;;;23.00;63.80;101415.19;3592303;39;20063;-64
2022/05/19 07:57:07;;;;;;;16.25;14.15;;;;;;;23.26;63.55;101420.66;3587947;39;20059;-64
2022/05/19 07:59:33;;;;;;;18.00;12.85;;;;;;;23.65;64.75;101420.13;3590256;39;20345;-64
2022/05/19 08:02:01;;;;;;;14.07;11.80;;;;;;;23.94;61.91;101399.66;3587438;39;20311;-63
2022/05/19 08:04:28;;;;;;;13.43;11.48;;;;;;;24.29;59.73;101413.13;3588276;39;20665;-63
2022/05/19 08:06:54;;;;;;;13.88;11.38;;;;;;;24.44;57.88;101388.59;3589162;39;20064;-64
2022/05/19 08:12:06;;;;;;;13.15;10.20;;;;;;;25.01;55.66;101395.91;3591518;39;20111;-64
2022/05/19 08:17:19;;;;;;;11.18;9.57;;;;;;;25.18;56.05;101381.13;3587768;39;20114;-65
2022/05/19 08:19:46;;;;;;;10.65;8.60;;;;;;;25.61;54.39;101411.91;3588939;39;20446;-65
2022/05/19 08:22:12;;;;;;;10.23;9.23;;;;;;;25.87;54.01;101422.63;3588498;39;20121;-65
2022/05/19 08:24:38;;;;;;;12.63;8.57;;;;;;;26.05;53.22;101416.88;3591306;39;20085;-65
2022/05/19 08:27:06;;;;;;;11.00;8.18;;;;;;;26.12;50.62;101423.34;3589635;39;20407;-65
2022/05/19 08:29:33;;;;;;;8.65;7.85;;;;;;;26.24;50.17;101421.03;3590131;39;20097;-64
2022/05/19 08:31:59;;;;;;;9.30;7.38;;;;;;;26.34;49.82;101427.16;3591562;39;20378;-65
2022/05/19 08:34:25;;;;;;;14.80;8.18;;;;;;;26.55;49.62;101418.25;3587938;39;20094;-65
2022/05/19 08:36:50;;;;;;;12.00;8.10;;;;;;;26.62;48.21;101413.69;3589255;39;20387;-65
2022/05/19 08:39:18;;;;;;;14.15;7.63;;;;;;;26.60;49.13;101379.06;3587327;39;20125;-66
2022/05/19 08:42:03;;;;;;;11.73;8.20;;;;;;;27.05;48.83;101402.94;3586487;39;20052;-65
2022/05/19 08:44:48;;;;;;;11.68;7.40;;;;;;;27.19;46.77;101408.69;3588036;39;20153;-65
2022/05/19 08:47:22;;;;;;;9.63;7.18;;;;;;;27.39;46.55;101400.69;3594084;39;20052;-66
2022/05/19 08:50:01;;;;;;;12.15;7.55;;;;;;;27.47;45.23;101395.91;3588123;39;20060;-66
2022/05/19 08:52:36;;;;;;;10.85;8.05;;;;;;;27.46;45.92;101394.19;3586167;39;20260;-65
2022/05/19 08:55:03;;;;;;;8.13;7.30;;;;;;;27.59;45.32;101389.88;3586830;39;20048;-65
2022/05/19 08:57:35;;;;;;;8.93;6.80;;;;;;;27.78;47.07;101386.53;3585600;39;20703;-65
2022/05/19 09:00:19;;;;;;;11.38;6.07;;;;;;;28.03;44.77;101380.66;3587547;39;20060;-65
2022/05/19 09:03:11;;;;;;;10.18;6.68;;;;;;;27.94;44.99;101378.03;3590796;39;20083;-63
2022/05/19 09:06:10;;;;;;;12.82;6.78;;;;;;;27.76;45.11;101377.56;3589150;39;20056;-63
2022/05/19 09:09:31;;;;;;;12.23;6.57;;;;;;;27.57;45.15;101383.72;3588621;39;20056;-63
2022/05/19 09:12:08;;;;;;;9.18;6.20;;;;;;;27.61;45.27;101379.50;3576981;40;20060;-64
2022/05/19 09:14:35;;;;;;;8.10;5.97;;;;;;;27.80;46.02;101367.03;3575519;40;20088;-63
2022/05/19 09:17:08;;;;;;;9.75;6.13;;;;;;;28.15;46.34;101365.25;3584724;39;20058;-63
2022/05/19 09:19:59;;;;;;;10.43;6.25;;;;;;;28.62;45.58;101378.50;3588837;39;20052;-63
2022/05/19 09:22:33;;;;;;;7.15;5.70;;;;;;;28.79;44.52;101379.03;3587848;39;20121;-63
2022/05/19 09:25:06;;;;;;;9.73;6.05;;;;;;;28.90;42.64;101375.72;3591596;39;20066;-63
2022/05/19 09:27:36;;;;;;;;;;;;;;;28.98;44.45;101369.16;3589266;39;20067;-63
2022/05/19 09:30:06;;;;;;;8.00;6.00;;;;;;;29.01;42.80;101366.03;3588861;39;19940;-63
2022/05/19 09:32:45;;;;;;;12.32;6.30;;;;;;;28.85;43.43;101350.56;3589904;39;20056;-63
2022/05/19 09:35:47;;;;;;;9.77;5.85;;;;;;;28.95;44.05;101368.72;3590350;39;20052;-63
2022/05/19 09:38:35;;;;;;;14.30;5.88;;;;;;;28.82;42.94;101373.09;3590363;39;20152;-62
2022/05/19 09:41:33;;;;;;;10.77;5.90;;;;;;;27.91;43.90;101259.59;3592161;39;20133;-63
2022/05/19 09:44:04;;;;;;;8.32;5.95;;;;;;;28.60;43.40;101374.22;3591722;39;20052;-65
2022/05/19 09:46:50;;;;;;;10.88;5.65;;;;;;;28.29;43.26;101336.69;3587459;39;20060;-64
2022/05/19 09:50:02;;;;;;;10.40;4.93;;;;;;;28.43;44.93;101371.72;3590372;39;20048;-63
2022/05/19 09:52:32;;;;;;;9.38;5.35;;;;;;;28.45;44.64;101361.34;3586259;39;20214;-63
2022/05/19 09:55:04;;;;;;;10.40;5.00;;;;;;;28.50;43.35;101369.03;3592738;39;20488;-64
2022/05/19 09:57:51;;;;;;;12.30;4.50;;;;;;;28.50;44.17;101346.91;3590621;39;20064;-63
2022/05/19 10:00:40;;;;;;;5.40;4.60;;;;;;;28.61;43.36;101354.66;3589358;39;20048;-64
2022/05/19 10:03:21;;;;;;;8.43;4.70;;;;;;;28.54;44.01;101326.06;3591219;39;20055;-63
2022/05/19 10:05:54;;;;;;;8.80;4.63;;;;;;;28.70;42.82;101349.81;3591603;39;20063;-63
2022/05/19 10:08:44;;;;;;;5.97;4.20;;;;;;;28.71;40.85;101340.47;3590946;39;20695;-63
2022/05/19 10:11:27;;;;;;;8.00;5.95;;;;;;;28.59;41.21;101295.03;3591425;39;20051;-63
2022/05/19 10:14:10;;;;;;;9.10;3.90;;;;;;;28.89;40.38;101309.47;3592828;39;20124;-63
2022/05/19 10:17:15;;;;;;;;;;;;;;;29.00;39.56;101305.31;3592303;39;20400;-64
2022/05/19 10:20:22;;;;;;;6.22;4.03;;;;;;;29.31;39.66;101299.31;3580143;39;19939;-63
2022/05/19 10:23:09;;;;;;;5.35;3.58;;;;;;;29.57;39.76;101304.09;3597056;39;20048;-64
2022/05/19 10:25:40;;;;;;;7.22;4.00;;;;;;;29.63;38.62;101313.53;3592294;39;20369;-63
2022/05/19 10:32:12;;;;;;;4.45;3.55;;;;;;;29.44;38.61;101304.06;3591774;39;20070;-63
2022/05/19 10:34:49;;;;;;;5.88;4.80;;;;;;;29.64;38.60;101301.38;3592952;39;20056;-63
2022/05/19 10:38:00;;;;;;;8.00;4.13;;;;;;;29.76;37.58;101292.22;3590344;39;20126;-63
2022/05/19 10:40:49;;;;;;;10.45;3.70;;;;;;;29.97;37.83;101302.28;3588167;39;20064;-65
2022/05/19 10:43:42;;;;;;;7.70;3.85;;;;;;;30.08;38.24;101307.19;3592483;39;20387;-63
2022/05/19 10:46:14;;;;;;;5.47;3.40;;;;;;;30.14;37.29;101310.19;3593298;39;20060;-63
2022/05/19 10:49:30;;;;;;;4.82;3.40;;;;;;;29.98;37.42;101305.91;3591209;39;20099;-63
2022/05/19 10:52:23;;;;;;;7.03;3.80;;;;;;;29.89;38.83;101308.03;3578807;40;20134;-62
2022/05/19 10:55:22;;;;;;;7.97;3.58;;;;;;;29.91;37.64;101307.81;3578154;40;20100;-62
2022/05/19 10:58:25;;;;;;;6.82;4.10;;;;;;;29.99;36.68;101307.59;3588119;39;20097;-62
2022/05/19 11:01:19;;;;;;;3.95;3.33;;;;;;;30.03;36.81;101306.13;3581220;39;20122;-62
2022/05/19 11:04:11;;;;;;;3.97;3.10;;;;;;;30.00;36.99;101298.22;3592493;39;20071;-64
2022/05/19 11:06:55;;;;;;;6.63;3.35;;;;;;;29.84;37.35;101294.81;3592038;39;20134;-63
2022/05/19 11:09:51;;;;;;;6.80;3.00;;;;;;;29.63;37.43;101294.97;3590275;39;20086;-63
2022/05/19 11:12:53;;;;;;;9.43;3.60;;;;;;;29.39;38.30;101302.72;3589393;39;20292;-62
2022/05/19 11:15:39;;;;;;;9.73;3.43;;;;;;;29.05;37.80;101261.25;3589457;39;20087;-62
2022/05/19 11:18:32;;;;;;;5.43;3.60;;;;;;;29.06;39.32;101290.69;3591867;39;20267;-62
2022/05/19 11:21:15;;;;;;;5.45;3.40;;;;;;;28.91;39.42;101301.84;3591307;39;20056;-62
2022/05/19 11:23:48;;;;;;;4.10;3.40;;;;;;;28.72;40.29;101300.66;3591738;39;20059;-63
2022/05/19 11:26:38;;;;;;;5.47;3.40;;;;;;;28.55;41.51;101316.72;3588175;39;20089;-62
2022/05/19 11:29:06;;;;;;;7.00;3.55;;;;;;;28.38;40.30;101327.19;3616521;23;20044;-64
2022/05/19 11:31:50;;;;;;;7.32;3.50;;;;;;;28.26;41.01;101336.22;3579195;40;20102;-63
2022/05/19 11:34:32;;;;;;;4.90;3.50;;;;;;;28.17;42.56;101349.34;3579249;40;20068;-63
2022/05/19 11:37:30;;;;;;;6.35;3.53;;;;;;;27.98;42.93;101354.47;3581484;40;20052;-64
2022/05/19 11:40:20;;;;;;;10.10;3.70;;;;;;;27.88;42.46;101502.28;3580376;40;20074;-64
2022/05/19 11:43:23;;;;;;;51.38;5.07;;;;;;;26.84;47.78;101629.91;3580574;40;20304;-65
2022/05/19 11:46:13;;;;;;;41.22;6.43;;;;;;;24.20;58.75;101590.00;3581963;40;20648;-62
2022/05/19 11:55:18;;;;;;;7.97;2.58;;;;;;;20.36;72.45;101604.28;3579467;40;20046;-64
2022/05/19 11:57:48;;;;;;;6.20;2.10;;;;;;;19.87;71.74;101586.88;3578852;40;20048;-62
2022/05/19 12:00:28;;;;;;;7.85;1.80;;;;;;;19.43;72.37;101569.81;3579053;40;20334;-62